Time;durP1;ratioP1;P1;durP2;ratioP2;P2;SDS_P1;SDS_P2;PMS_P1;PMS_P2;Temp;Humidity;BMP_temperature;BMP_pressure;BME280_temperature;BME280_humidity;BME280_pressure;Samples;Min_cycle;Max_cycle;Signal;HPM_P1;HPM_P2
2021/03/16 00:04:07;;;;;;;133.47;54.10;;;;;;;1.45;70.80;97869.09;258852;1108;23080;-75
2021/03/16 00:09:28;;;;;;;195.00;79.13;;;;;;;1.38;70.67;97865.87;259181;1108;23076;-74
2021/03/16 00:14:30;;;;;;;227.95;91.65;;;;;;;1.13;69.59;97869.06;259155;1108;23154;-74
2021/03/16 00:19:32;;;;;;;203.30;82.50;;;;;;;0.90;69.53;97889.41;259032;1109;23057;-73
2021/03/16 00:24:35;;;;;;;207.20;77.23;;;;;;;0.65;70.43;97880.14;258976;1109;23154;-74
2021/03/16 00:29:37;;;;;;;176.10;74.83;;;;;;;0.47;70.34;97883.88;259009;1108;23174;-74
2021/03/16 00:34:39;;;;;;;199.60;78.33;;;;;;;0.31;70.86;97890.01;259155;1109;23222;-73
2021/03/16 00:39:44;;;;;;;199.10;80.45;;;;;;;0.22;70.86;97894.09;259256;1108;26103;-74
2021/03/16 00:44:46;;;;;;;181.73;71.60;;;;;;;0.15;71.95;97892.43;259113;1109;23222;-74
2021/03/16 00:49:48;;;;;;;163.43;66.50;;;;;;;0.11;71.95;97883.42;258955;1109;23023;-73
2021/03/16 00:54:50;;;;;;;188.83;73.83;;;;;;;0.06;71.47;97875.44;259082;1107;23174;-73
2021/03/16 00:59:53;;;;;;;178.63;69.37;;;;;;;0.05;72.19;97887.00;259213;1108;23021;-75
2021/03/16 01:05:07;;;;;;;183.13;74.17;;;;;;;0.09;72.61;97888.11;259078;1109;24001;-73
2021/03/16 01:10:15;;;;;;;205.17;79.13;;;;;;;0.13;73.09;97881.33;259148;1109;23093;-74
2021/03/16 01:15:18;;;;;;;209.30;85.53;;;;;;;0.21;72.21;97879.31;259207;1108;23176;-74
2021/03/16 01:20:24;;;;;;;208.17;81.97;;;;;;;0.30;71.89;97893.67;259211;1108;23477;-74
2021/03/16 01:25:26;;;;;;;195.90;75.67;;;;;;;0.41;72.39;97887.50;259226;1107;23109;-74
2021/03/16 01:30:28;;;;;;;163.30;63.55;;;;;;;0.53;72.95;97897.13;259223;1108;23238;-74
2021/03/16 01:35:30;;;;;;;164.63;64.97;;;;;;;0.55;72.52;97901.11;258850;1108;23067;-74
2021/03/16 01:40:38;;;;;;;174.73;69.03;;;;;;;0.61;73.16;97886.16;259120;1108;23012;-74
2021/03/16 01:45:43;;;;;;;189.93;80.37;;;;;;;0.65;72.22;97888.05;259227;1108;23039;-73
2021/03/16 01:50:45;;;;;;;201.33;79.67;;;;;;;0.69;72.23;97885.73;259160;1108;23018;-74
2021/03/16 01:55:51;;;;;;;206.85;86.50;;;;;;;0.74;72.62;97895.53;259207;1107;23231;-74
2021/03/16 02:00:53;;;;;;;221.60;92.87;;;;;;;0.76;72.16;97896.11;259127;1108;23852;-74
2021/03/16 02:06:25;;;;;;;217.70;86.70;;;;;;;0.79;73.16;97901.66;259149;1107;26261;-74
2021/03/16 02:11:53;;;;;;;195.60;78.05;;;;;;;0.80;72.21;97903.27;259299;1108;26159;-75
2021/03/16 02:17:29;;;;;;;169.20;71.90;;;;;;;0.82;72.90;97906.44;259223;1108;23276;-74
2021/03/16 02:22:56;;;;;;;180.07;69.73;;;;;;;0.81;72.60;97912.78;259168;1108;23238;-74
2021/03/16 02:28:29;;;;;;;165.90;67.33;;;;;;;0.83;72.87;97908.05;258924;1107;23036;-74
2021/03/16 02:33:51;;;;;;;176.40;72.93;;;;;;;0.81;72.84;97911.97;259272;1108;23186;-74
2021/03/16 02:39:14;;;;;;;178.53;73.67;;;;;;;0.83;72.84;97915.95;259074;1109;23241;-74
2021/03/16 02:44:37;;;;;;;168.23;71.67;;;;;;;0.88;73.05;97904.66;258921;1109;23037;-74
2021/03/16 02:49:59;;;;;;;157.30;64.97;;;;;;;0.96;72.96;97906.08;258858;1108;23226;-75
2021/03/16 02:55:22;;;;;;;144.47;61.67;;;;;;;0.99;72.46;97905.58;258865;1109;23516;-74
2021/03/16 03:00:43;;;;;;;165.10;65.73;;;;;;;0.88;72.75;97903.88;258834;1108;23053;-74
2021/03/16 03:06:07;;;;;;;153.20;70.13;;;;;;;0.82;72.59;97909.08;258909;1108;23067;-75
2021/03/16 03:11:32;;;;;;;136.50;60.15;;;;;;;0.83;72.35;97909.89;258927;1109;23030;-75
2021/03/16 03:16:54;;;;;;;142.60;60.10;;;;;;;0.87;72.85;97908.36;258857;1108;23088;-74
2021/03/16 03:23:15;;;;;;;150.17;64.83;;;;;;;0.88;73.06;97924.97;259003;1108;23222;-75
2021/03/16 03:28:38;;;;;;;134.40;54.90;;;;;;;0.88;73.05;97936.30;258270;1111;23031;-75
2021/03/16 03:34:01;;;;;;;124.43;53.10;;;;;;;0.82;72.81;97935.45;258758;1108;23097;-75
2021/03/16 03:39:24;;;;;;;120.50;52.40;;;;;;;0.71;72.00;97939.00;258899;1108;23160;-75
2021/03/16 03:44:49;;;;;;;125.97;55.20;;;;;;;0.58;72.45;97940.16;258942;1109;23027;-75
2021/03/16 03:50:13;;;;;;;128.23;53.13;;;;;;;0.39;73.09;97949.38;258954;1109;23443;-74
2021/03/16 03:55:35;;;;;;;102.90;47.95;;;;;;;0.16;73.28;97951.95;258803;1109;23080;-75
2021/03/16 04:00:57;;;;;;;104.45;44.50;;;;;;;-0.04;73.64;97956.92;258589;1107;23226;-75
2021/03/16 04:06:22;;;;;;;116.50;50.40;;;;;;;-0.16;74.16;97956.98;258945;1109;26437;-75
2021/03/16 04:11:43;;;;;;;106.97;47.13;;;;;;;-0.27;74.14;97966.53;259011;1109;23079;-73
2021/03/16 04:17:05;;;;;;;103.10;44.63;;;;;;;-0.34;74.61;97963.26;259055;1108;23031;-75
2021/03/16 04:22:26;;;;;;;94.50;42.50;;;;;;;-0.41;74.77;97960.77;259085;1109;23078;-74
2021/03/16 04:27:47;;;;;;;95.00;40.90;;;;;;;-0.48;74.51;97972.49;258971;1108;23223;-74
2021/03/16 04:33:09;;;;;;;93.47;39.73;;;;;;;-0.61;74.77;97969.11;258711;1108;23086;-76
2021/03/16 04:38:30;;;;;;;92.50;41.90;;;;;;;-0.74;75.42;97974.63;259013;1108;23204;-74
2021/03/16 04:43:50;;;;;;;89.33;38.97;;;;;;;-0.80;75.28;97976.37;259096;1109;22989;-74
2021/03/16 04:49:11;;;;;;;81.43;37.00;;;;;;;-0.84;75.29;97984.97;258839;1109;22995;-74
2021/03/16 04:54:32;;;;;;;70.83;30.50;;;;;;;-0.89;76.18;97985.67;258644;1109;23091;-74
2021/03/16 04:59:53;;;;;;;72.57;33.67;;;;;;;-0.94;76.29;97993.45;258985;1109;23165;-75
2021/03/16 05:05:15;;;;;;;75.17;36.57;;;;;;;-0.88;76.47;97995.95;258723;1108;23080;-75
2021/03/16 05:10:36;;;;;;;73.83;33.10;;;;;;;-0.70;76.09;98007.33;259028;1108;23070;-75
2021/03/16 05:15:58;;;;;;;66.63;32.20;;;;;;;-0.55;76.76;98002.36;259062;1108;23252;-74
2021/03/16 05:21:20;;;;;;;67.67;32.70;;;;;;;-0.32;76.71;98007.77;259694;1109;23077;-75
2021/03/16 05:26:42;;;;;;;64.97;31.40;;;;;;;-0.12;76.05;98008.12;258875;1108;23078;-74
2021/03/16 05:32:04;;;;;;;60.70;28.67;;;;;;;0.20;76.63;98020.77;258894;1109;23077;-74
2021/03/16 05:37:25;;;;;;;63.23;30.87;;;;;;;0.53;76.61;98021.00;259053;1108;23075;-75
2021/03/16 05:42:47;;;;;;;60.43;30.27;;;;;;;0.83;77.08;98026.70;259008;1108;23074;-76
2021/03/16 05:48:12;;;;;;;52.47;25.10;;;;;;;1.22;77.02;98022.43;259074;1109;23191;-74
2021/03/16 05:53:34;;;;;;;52.47;26.43;;;;;;;1.60;76.47;98024.20;259147;1108;23158;-75
2021/03/16 05:58:55;;;;;;;53.77;27.93;;;;;;;1.87;76.75;98031.33;259015;1109;23084;-74
2021/03/16 06:04:16;;;;;;;56.05;27.75;;;;;;;2.02;75.99;98038.61;259239;1106;23096;-75
2021/03/16 06:09:38;;;;;;;63.90;32.30;;;;;;;2.14;75.96;98041.89;258992;1109;23040;-75
2021/03/16 06:15:12;;;;;;;55.57;28.97;;;;;;;2.26;76.15;98048.86;258954;1109;23147;-75
2021/03/16 06:20:35;;;;;;;51.47;25.60;;;;;;;2.33;75.82;98049.44;259116;1109;23076;-76
2021/03/16 06:25:56;;;;;;;44.03;22.90;;;;;;;2.41;75.25;98043.69;258744;1108;23050;-75
2021/03/16 06:31:22;;;;;;;51.05;24.95;;;;;;;2.53;75.04;98056.72;258990;1108;26471;-76
2021/03/16 06:36:48;;;;;;;44.30;23.50;;;;;;;2.71;75.10;98058.99;258993;1109;23010;-75
2021/03/16 06:42:29;;;;;;;43.83;25.77;;;;;;;2.84;75.38;98057.75;258938;1108;23089;-75
2021/03/16 06:47:50;;;;;;;40.40;20.67;;;;;;;2.99;75.33;98069.47;259316;1108;23233;-74
2021/03/16 06:53:28;;;;;;;49.00;24.87;;;;;;;3.09;75.18;98061.58;259273;1108;23188;-76
2021/03/16 06:59:19;;;;;;;48.17;24.63;;;;;;;3.38;74.69;98063.84;259291;1107;23256;-75
2021/03/16 07:04:48;;;;;;;39.27;22.20;;;;;;;3.65;74.72;98068.98;259412;1109;23229;-75
2021/03/16 07:10:11;;;;;;;46.87;25.50;;;;;;;3.84;74.42;98071.16;259358;1108;23106;-74
2021/03/16 07:15:40;;;;;;;45.60;24.53;;;;;;;3.97;74.27;98078.59;259413;1109;23034;-75
2021/03/16 07:21:05;;;;;;;49.63;26.67;;;;;;;4.03;74.46;98082.05;259332;1109;24640;-75
2021/03/16 07:26:27;;;;;;;41.55;21.75;;;;;;;4.21;73.95;98092.17;259398;1109;23091;-75
2021/03/16 07:31:50;;;;;;;33.60;19.13;;;;;;;4.45;74.55;98096.97;259394;1109;23106;-75
2021/03/16 07:37:12;;;;;;;34.90;18.50;;;;;;;4.62;73.71;98115.27;259040;1109;23018;-75
2021/03/16 07:42:36;;;;;;;31.55;17.80;;;;;;;4.70;73.81;98116.59;259244;1107;23006;-75
2021/03/16 07:47:57;;;;;;;29.07;16.40;;;;;;;4.73;73.31;98118.70;259397;1108;23183;-75
2021/03/16 07:53:25;;;;;;;21.77;14.17;;;;;;;4.83;73.16;98125.86;259392;1108;23073;-74
2021/03/16 07:58:46;;;;;;;24.25;14.70;;;;;;;4.91;73.32;98131.45;259515;1108;23199;-75
2021/03/16 08:04:09;;;;;;;23.95;15.70;;;;;;;5.24;73.43;98129.27;259306;1109;23081;-75
2021/03/16 08:09:31;;;;;;;23.60;13.97;;;;;;;5.54;72.78;98129.45;259316;1108;23055;-76
2021/03/16 08:14:53;;;;;;;19.00;12.00;;;;;;;5.46;72.03;98134.27;259196;1108;23139;-76
2021/03/16 08:20:27;;;;;;;19.50;12.07;;;;;;;5.20;72.11;98138.83;259335;1107;23277;-76
2021/03/16 08:25:48;;;;;;;21.10;12.93;;;;;;;5.09;71.96;98143.38;259316;1109;23007;-76
2021/03/16 08:31:09;;;;;;;21.95;12.60;;;;;;;5.32;73.18;98143.88;259137;1109;22984;-76
2021/03/16 08:36:37;;;;;;;15.57;9.33;;;;;;;5.56;72.67;98145.94;259499;1108;23328;-76
2021/03/16 08:42:00;;;;;;;13.47;8.10;;;;;;;5.46;71.22;98144.89;259407;1109;25035;-76
2021/03/16 08:47:23;;;;;;;13.50;9.05;;;;;;;5.38;71.44;98147.31;259346;1109;23091;-76
2021/03/16 08:52:44;;;;;;;14.40;8.57;;;;;;;5.39;71.66;98148.91;259357;1109;23089;-75
2021/03/16 08:58:10;;;;;;;12.80;7.83;;;;;;;5.57;71.70;98156.30;259365;1108;23145;-74
2021/03/16 09:03:31;;;;;;;9.13;6.10;;;;;;;5.84;71.36;98163.11;259485;1109;23030;-75
2021/03/16 09:08:53;;;;;;;7.57;5.13;;;;;;;5.95;70.97;98154.02;259542;1108;23575;-75
2021/03/16 09:14:16;;;;;;;7.03;5.10;;;;;;;5.83;69.83;98164.98;259573;1109;23100;-76
2021/03/16 09:19:37;;;;;;;7.57;5.70;;;;;;;5.60;69.41;98166.38;259294;1108;23602;-76
2021/03/16 09:24:58;;;;;;;8.57;5.97;;;;;;;5.36;69.32;98163.52;259487;1109;23057;-76
2021/03/16 09:30:19;;;;;;;11.63;7.53;;;;;;;5.26;70.12;98169.64;259676;1108;23220;-76
2021/03/16 09:35:40;;;;;;;12.53;7.57;;;;;;;5.24;70.35;98178.94;259618;1109;23061;-75
2021/03/16 09:41:09;;;;;;;10.67;6.67;;;;;;;5.25;70.59;98180.54;259410;1109;23071;-76
2021/03/16 09:46:14;;;;;;;8.37;6.23;;;;;;;5.21;70.48;98185.58;259432;1108;23158;-75
2021/03/16 09:51:23;;;;;;;9.05;6.30;;;;;;;5.14;70.15;98188.49;259331;1108;23468;-76
2021/03/16 09:56:30;;;;;;;8.27;6.03;;;;;;;5.21;70.84;98195.41;259747;1108;23004;-76
2021/03/16 10:01:39;;;;;;;9.30;6.00;;;;;;;5.17;70.55;98192.48;259526;1108;24678;-76
2021/03/16 10:06:43;;;;;;;7.10;5.15;;;;;;;5.09;70.49;98195.67;259477;1109;23165;-76
2021/03/16 10:11:46;;;;;;;6.55;5.05;;;;;;;5.04;70.56;98198.34;259317;1108;23030;-76
2021/03/16 10:16:53;;;;;;;7.63;4.83;;;;;;;4.99;70.64;98196.47;259559;1109;23176;-75
2021/03/16 10:21:56;;;;;;;7.27;4.60;;;;;;;4.99;70.70;98203.64;259463;1108;22999;-75
2021/03/16 10:27:00;;;;;;;7.47;5.23;;;;;;;5.17;71.08;98205.75;259589;1108;26560;-76
2021/03/16 10:32:02;;;;;;;8.07;5.10;;;;;;;5.31;70.68;98206.02;259598;1109;23466;-76
2021/03/16 10:37:05;;;;;;;8.63;5.27;;;;;;;5.37;70.89;98206.80;259537;1109;23203;-76
2021/03/16 10:42:07;;;;;;;6.57;4.40;;;;;;;5.39;70.85;98212.66;260070;1109;23097;-77
2021/03/16 10:47:10;;;;;;;7.07;5.33;;;;;;;5.28;70.56;98214.52;259636;1109;23117;-78
2021/03/16 10:52:12;;;;;;;7.23;4.93;;;;;;;5.18;70.95;98214.53;259823;1108;23024;-78
2021/03/16 10:57:15;;;;;;;7.07;5.03;;;;;;;5.11;70.99;98222.77;259535;1108;23233;-76
2021/03/16 11:02:17;;;;;;;8.27;5.33;;;;;;;5.01;71.23;98222.74;259557;1109;23347;-78
2021/03/16 11:07:21;;;;;;;9.20;7.00;;;;;;;5.02;71.81;98227.00;259450;1109;23334;-76
2021/03/16 11:12:23;;;;;;;13.73;9.00;;;;;;;5.08;72.20;98223.30;260086;1108;23347;-77
2021/03/16 11:17:25;;;;;;;13.80;8.65;;;;;;;5.35;72.59;98220.35;260139;1107;26482;-77
2021/03/16 11:22:27;;;;;;;12.73;8.20;;;;;;;5.76;71.92;98214.16;259599;1108;23020;-77
2021/03/16 11:27:29;;;;;;;10.77;8.00;;;;;;;6.01;71.72;98215.19;259453;1109;25934;-76
2021/03/16 11:32:32;;;;;;;12.87;8.00;;;;;;;6.15;71.24;98224.16;259466;1108;23023;-77
2021/03/16 11:37:53;;;;;;;10.87;7.70;;;;;;;6.33;71.04;98209.45;259929;1108;23080;-75
2021/03/16 11:43:14;;;;;;;7.67;5.77;;;;;;;6.50;70.70;98209.87;259885;1109;23100;-76
2021/03/16 11:48:38;;;;;;;8.10;6.13;;;;;;;6.48;69.88;98220.02;260109;1107;23238;-76
2021/03/16 11:54:00;;;;;;;9.43;6.80;;;;;;;6.36;69.75;98218.76;259740;1108;27631;-77
2021/03/16 11:59:21;;;;;;;7.47;5.77;;;;;;;6.10;70.47;98221.52;260924;1108;23080;-77
2021/03/16 12:04:42;;;;;;;7.20;4.95;;;;;;;6.02;70.84;98211.47;260507;1107;23021;-77
2021/03/16 12:10:04;;;;;;;5.05;3.85;;;;;;;6.11;70.59;98213.29;260036;1107;23093;-77
2021/03/16 12:15:25;;;;;;;5.67;4.43;;;;;;;6.36;71.72;98200.14;259973;1107;26562;-77
2021/03/16 12:20:46;;;;;;;6.63;4.57;;;;;;;6.65;70.54;98200.23;259744;1108;23021;-77
2021/03/16 12:26:07;;;;;;;8.93;6.67;;;;;;;6.76;70.14;98192.98;259606;1109;27746;-77
2021/03/16 12:31:28;;;;;;;9.80;6.83;;;;;;;6.50;69.46;98195.79;259518;1107;23173;-76
2021/03/16 12:36:50;;;;;;;6.25;4.40;;;;;;;6.04;69.38;98204.00;259855;1108;24464;-76
2021/03/16 12:42:12;;;;;;;8.37;6.17;;;;;;;5.70;70.31;98188.68;259869;1108;23063;-75
2021/03/16 12:47:34;;;;;;;9.07;6.40;;;;;;;5.70;71.60;98186.81;260113;1108;23014;-77
2021/03/16 12:52:56;;;;;;;7.40;4.87;;;;;;;5.97;72.00;98189.15;259263;1108;23298;-76
2021/03/16 12:58:17;;;;;;;9.77;6.50;;;;;;;6.43;71.47;98190.77;264059;1107;23014;-77
2021/03/16 13:03:39;;;;;;;10.37;6.90;;;;;;;6.95;71.33;98185.91;259805;1109;23080;-76
2021/03/16 13:09:01;;;;;;;9.30;6.60;;;;;;;7.27;69.83;98184.55;259907;1107;23039;-77
2021/03/16 13:14:22;;;;;;;10.53;7.37;;;;;;;7.17;69.24;98181.98;259950;1109;23096;-77
2021/03/16 13:19:43;;;;;;;10.27;6.77;;;;;;;7.07;69.06;98188.20;259750;1107;23020;-76
2021/03/16 13:25:04;;;;;;;9.80;7.20;;;;;;;7.06;68.06;98197.25;259898;1107;23014;-76
2021/03/16 13:30:25;;;;;;;9.63;7.30;;;;;;;6.85;67.35;98224.06;259912;1108;23033;-77
2021/03/16 13:35:46;;;;;;;4.50;3.57;;;;;;;5.98;67.75;98227.94;259845;1108;23226;-76
2021/03/16 13:41:08;;;;;;;5.13;3.67;;;;;;;5.17;69.30;98242.93;259384;1107;23060;-76
2021/03/16 13:46:29;;;;;;;3.93;2.83;;;;;;;4.49;70.89;98249.22;259446;1109;23006;-76
2021/03/16 13:51:50;;;;;;;4.97;3.40;;;;;;;4.05;72.09;98233.67;259372;1107;23013;-76
2021/03/16 13:57:11;;;;;;;5.97;4.40;;;;;;;3.94;73.95;98238.94;259287;1108;23235;-76
2021/03/16 14:02:33;;;;;;;7.30;4.33;;;;;;;4.13;74.03;98241.13;259218;1109;23231;-76
2021/03/16 14:07:55;;;;;;;5.65;3.80;;;;;;;4.31;74.95;98252.32;259655;1108;23033;-76
2021/03/16 14:13:16;;;;;;;4.93;3.80;;;;;;;4.38;74.98;98251.03;259442;1109;23030;-76
2021/03/16 14:18:38;;;;;;;5.63;4.03;;;;;;;4.43;75.44;98258.20;259079;1108;23164;-77
2021/03/16 14:24:03;;;;;;;5.10;3.53;;;;;;;4.49;75.29;98259.83;259293;1108;23035;-77
2021/03/16 14:29:25;;;;;;;5.83;4.03;;;;;;;4.51;75.01;98263.00;259266;1109;26051;-77
2021/03/16 14:34:45;;;;;;;5.30;3.90;;;;;;;4.51;75.30;98267.52;259306;1109;26546;-77
2021/03/16 14:40:11;;;;;;;4.33;3.07;;;;;;;4.50;75.32;98279.97;259451;1108;23215;-76
2021/03/16 14:45:32;;;;;;;6.50;3.95;;;;;;;4.62;75.15;98277.89;259280;1107;22997;-77
2021/03/16 14:50:53;;;;;;;5.83;4.07;;;;;;;4.74;75.21;98280.33;259501;1108;23019;-77
2021/03/16 14:56:15;;;;;;;7.77;5.07;;;;;;;4.79;75.46;98277.66;259521;1107;23057;-76
2021/03/16 15:01:36;;;;;;;8.10;5.90;;;;;;;4.79;74.80;98282.97;259738;1108;23100;-76
2021/03/16 15:06:58;;;;;;;6.97;4.80;;;;;;;4.80;75.14;98283.78;259622;1108;23102;-76
2021/03/16 15:12:20;;;;;;;7.20;4.93;;;;;;;4.79;74.82;98285.63;259572;1107;23075;-76
2021/03/16 15:17:42;;;;;;;6.23;4.53;;;;;;;4.74;74.91;98292.77;259612;1109;23027;-76
2021/03/16 15:23:08;;;;;;;7.70;5.25;;;;;;;4.66;75.11;98293.28;259428;1108;23225;-75
2021/03/16 15:28:29;;;;;;;8.40;5.40;;;;;;;4.54;75.01;98298.83;259376;1108;23030;-75
2021/03/16 15:33:50;;;;;;;7.30;5.83;;;;;;;4.45;75.61;98301.98;259301;1109;23155;-77
2021/03/16 15:39:11;;;;;;;8.57;6.43;;;;;;;4.34;75.68;98302.18;259129;1109;23081;-76
2021/03/16 15:44:33;;;;;;;8.97;5.97;;;;;;;4.25;75.57;98300.05;258976;1108;23025;-76
2021/03/16 15:49:53;;;;;;;10.07;6.63;;;;;;;4.24;75.97;98295.80;259121;1107;23172;-76
2021/03/16 15:55:15;;;;;;;11.80;7.20;;;;;;;4.23;76.25;98301.36;259165;1108;23074;-76
2021/03/16 16:00:36;;;;;;;9.60;6.97;;;;;;;4.20;76.12;98299.23;259086;1108;23070;-75
2021/03/16 16:05:57;;;;;;;14.70;8.87;;;;;;;4.20;76.33;98307.97;259548;1109;23022;-75
2021/03/16 16:11:19;;;;;;;14.80;9.67;;;;;;;4.15;76.32;98312.45;259149;1108;23223;-76
2021/03/16 16:16:39;;;;;;;17.97;10.33;;;;;;;4.12;76.47;98313.75;259085;1109;23205;-76
2021/03/16 16:22:01;;;;;;;17.97;10.87;;;;;;;4.12;76.42;98319.06;259037;1107;22969;-76
2021/03/16 16:27:22;;;;;;;18.70;11.10;;;;;;;4.15;76.60;98333.66;259142;1108;23037;-75
2021/03/16 16:32:43;;;;;;;17.30;9.77;;;;;;;4.15;76.94;98341.61;259052;1108;23077;-76
2021/03/16 16:38:05;;;;;;;19.35;11.35;;;;;;;4.07;76.42;98359.59;259001;1108;23175;-76
2021/03/16 16:43:26;;;;;;;19.83;11.60;;;;;;;4.10;76.92;98360.95;259206;1108;23026;-76
2021/03/16 16:48:47;;;;;;;22.03;13.23;;;;;;;4.10;77.04;98363.59;259126;1108;23205;-76
2021/03/16 16:54:08;;;;;;;24.20;13.10;;;;;;;4.03;77.19;98370.95;259088;1109;23072;-75
2021/03/16 16:59:29;;;;;;;23.07;12.93;;;;;;;4.01;77.11;98375.72;259134;1108;22979;-76
2021/03/16 17:04:50;;;;;;;18.40;12.00;;;;;;;3.98;77.63;98386.84;259083;1108;23036;-76
2021/03/16 17:10:13;;;;;;;15.70;9.30;;;;;;;3.85;77.72;98385.42;258992;1108;23208;-76
2021/03/16 17:15:34;;;;;;;13.53;8.37;;;;;;;3.77;78.22;98408.66;259207;1107;23018;-76
2021/03/16 17:20:55;;;;;;;14.70;8.97;;;;;;;3.69;77.79;98410.98;259357;1109;23020;-77
2021/03/16 17:26:16;;;;;;;13.03;8.33;;;;;;;3.61;78.61;98422.84;259021;1108;23073;-76
2021/03/16 17:31:38;;;;;;;12.00;7.80;;;;;;;3.50;78.67;98416.64;259178;1107;23038;-76
2021/03/16 17:36:59;;;;;;;13.40;8.23;;;;;;;3.38;79.10;98423.94;258927;1108;23083;-76
2021/03/16 17:42:20;;;;;;;15.00;10.40;;;;;;;3.29;79.27;98443.95;259092;1109;23017;-76
2021/03/16 17:47:41;;;;;;;14.57;9.87;;;;;;;3.19;78.89;98440.16;259038;1107;23248;-76
2021/03/16 17:53:03;;;;;;;13.77;8.80;;;;;;;3.14;79.35;98455.98;259271;1109;23451;-76
2021/03/16 17:58:25;;;;;;;14.80;9.50;;;;;;;3.11;79.57;98456.48;259174;1109;23006;-76
2021/03/16 18:03:46;;;;;;;13.73;8.77;;;;;;;3.07;79.21;98461.45;259039;1109;23602;-76
2021/03/16 18:09:07;;;;;;;17.57;10.83;;;;;;;3.05;79.77;98470.68;259183;1109;23035;-76
2021/03/16 18:14:28;;;;;;;15.43;10.37;;;;;;;3.04;79.65;98467.24;258817;1109;23323;-75
2021/03/16 18:19:50;;;;;;;14.97;9.77;;;;;;;3.03;79.91;98472.78;259042;1109;23018;-75
2021/03/16 18:25:11;;;;;;;14.33;9.73;;;;;;;3.02;79.98;98474.64;259130;1109;26149;-75
2021/03/16 18:30:33;;;;;;;15.60;10.37;;;;;;;3.05;79.59;98478.62;259252;1108;23222;-76
2021/03/16 18:35:54;;;;;;;17.03;11.10;;;;;;;3.03;79.73;98478.87;259133;1108;22987;-76
2021/03/16 18:41:15;;;;;;;16.70;10.20;;;;;;;3.03;79.46;98486.81;259179;1108;23111;-76
2021/03/16 18:46:36;;;;;;;12.50;8.55;;;;;;;3.02;79.89;98487.06;258954;1108;23023;-75
2021/03/16 18:51:57;;;;;;;13.97;9.43;;;;;;;2.99;80.06;98476.97;259050;1107;23053;-75
2021/03/16 18:57:18;;;;;;;15.37;9.57;;;;;;;2.98;80.35;98478.01;259035;1108;26595;-76
2021/03/16 19:02:39;;;;;;;14.03;8.63;;;;;;;2.99;79.82;98474.32;259060;1107;23027;-76
2021/03/16 19:08:00;;;;;;;15.55;10.50;;;;;;;2.94;80.22;98467.13;259094;1108;23080;-75
2021/03/16 19:13:22;;;;;;;15.47;8.60;;;;;;;2.95;79.84;98483.80;259041;1108;23546;-77
2021/03/16 19:18:42;;;;;;;13.17;9.03;;;;;;;2.96;80.68;98472.17;259059;1108;22979;-76
2021/03/16 19:24:04;;;;;;;14.87;9.30;;;;;;;2.97;80.54;98479.08;258914;1108;23022;-76
2021/03/16 19:29:27;;;;;;;14.50;8.65;;;;;;;3.00;80.17;98483.87;259040;1109;23183;-75
2021/03/16 19:34:47;;;;;;;14.20;9.17;;;;;;;3.00;80.34;98474.07;259137;1108;23082;-76
2021/03/16 19:40:09;;;;;;;15.40;9.47;;;;;;;3.01;79.94;98486.27;259226;1108;22998;-77
2021/03/16 19:45:31;;;;;;;12.70;7.43;;;;;;;3.01;80.05;98490.77;259111;1109;23083;-75
2021/03/16 19:50:52;;;;;;;9.50;6.13;;;;;;;2.96;80.03;98501.28;259088;1108;23244;-75
2021/03/16 19:56:13;;;;;;;9.25;6.30;;;;;;;2.85;80.17;98489.75;259075;1108;23148;-76
2021/03/16 20:01:35;;;;;;;10.00;6.40;;;;;;;2.79;80.02;98501.33;259025;1108;23222;-75
2021/03/16 20:06:56;;;;;;;9.27;6.13;;;;;;;2.76;79.76;98499.96;258998;1109;23030;-76
2021/03/16 20:12:17;;;;;;;9.73;6.83;;;;;;;2.74;79.89;98504.68;258962;1109;22993;-76
2021/03/16 20:17:38;;;;;;;10.80;6.90;;;;;;;2.73;80.36;98503.89;259029;1108;23023;-76
2021/03/16 20:22:59;;;;;;;10.85;7.50;;;;;;;2.71;80.36;98503.34;259106;1107;23033;-74
2021/03/16 20:28:21;;;;;;;11.60;7.53;;;;;;;2.70;80.10;98512.32;259083;1109;23087;-76
2021/03/16 20:33:42;;;;;;;14.03;7.67;;;;;;;2.69;80.41;98512.56;259373;1108;23199;-77
2021/03/16 20:39:05;;;;;;;11.05;7.45;;;;;;;2.69;80.17;98517.86;259269;1109;23184;-76
2021/03/16 20:44:26;;;;;;;12.50;8.07;;;;;;;2.69;81.52;98515.21;259211;1109;23060;-77
2021/03/16 20:49:47;;;;;;;11.97;8.20;;;;;;;2.69;80.92;98523.14;259143;1108;23027;-75
2021/03/16 20:55:10;;;;;;;11.80;8.47;;;;;;;2.69;80.56;98521.29;259113;1108;23017;-77
2021/03/16 21:00:32;;;;;;;11.87;8.80;;;;;;;2.72;81.30;98525.30;259136;1109;23068;-76
2021/03/16 21:05:53;;;;;;;15.30;9.37;;;;;;;2.71;81.00;98521.05;259338;1108;23154;-76
2021/03/16 21:11:14;;;;;;;13.30;8.20;;;;;;;2.69;80.61;98523.94;259121;1109;23021;-75
2021/03/16 21:16:35;;;;;;;13.50;9.47;;;;;;;2.70;81.04;98519.44;259050;1109;23090;-75
2021/03/16 21:21:56;;;;;;;14.27;9.60;;;;;;;2.72;81.05;98526.09;259135;1109;23086;-75
2021/03/16 21:27:17;;;;;;;15.60;10.60;;;;;;;2.70;80.64;98520.25;259099;1108;23020;-75
2021/03/16 21:32:41;;;;;;;16.53;10.33;;;;;;;2.72;80.97;98517.36;259014;1109;23084;-76
2021/03/16 21:38:03;;;;;;;12.33;8.97;;;;;;;2.75;81.31;98519.52;259011;1108;23017;-75
2021/03/16 21:43:24;;;;;;;13.95;8.60;;;;;;;2.75;81.37;98527.45;258960;1107;23025;-75
2021/03/16 21:48:45;;;;;;;14.43;9.27;;;;;;;2.71;81.41;98531.63;259046;1109;27330;-76
2021/03/16 21:54:06;;;;;;;16.00;9.17;;;;;;;2.73;81.11;98534.84;259091;1108;23003;-75
2021/03/16 21:59:27;;;;;;;16.40;10.90;;;;;;;2.74;81.22;98531.13;258964;1108;23119;-75
2021/03/16 22:04:47;;;;;;;13.05;8.40;;;;;;;2.73;81.21;98535.63;259065;1108;23060;-76
2021/03/16 22:10:14;;;;;;;16.50;9.67;;;;;;;2.72;81.77;98533.23;259062;1109;26226;-75
2021/03/16 22:15:35;;;;;;;14.27;9.20;;;;;;;2.71;81.35;98535.09;259008;1108;26390;-75
2021/03/16 22:20:56;;;;;;;15.17;9.00;;;;;;;2.70;81.73;98541.41;258908;1109;23087;-76
2021/03/16 22:26:17;;;;;;;15.47;9.13;;;;;;;2.69;81.55;98539.02;259081;1109;23086;-76
2021/03/16 22:31:38;;;;;;;12.80;8.47;;;;;;;2.69;81.59;98539.80;259015;1109;23083;-75
2021/03/16 22:36:59;;;;;;;12.70;8.60;;;;;;;2.68;81.52;98529.47;259019;1108;23454;-76
2021/03/16 22:42:20;;;;;;;12.27;7.93;;;;;;;2.68;81.41;98530.26;259087;1108;23097;-75
2021/03/16 22:47:41;;;;;;;13.75;8.55;;;;;;;2.69;81.45;98529.22;259019;1109;23083;-75
2021/03/16 22:53:03;;;;;;;13.50;8.37;;;;;;;2.70;81.25;98527.37;259116;1108;23056;-75
2021/03/16 22:58:23;;;;;;;11.53;7.67;;;;;;;2.69;81.14;98523.14;258887;1109;23148;-75
2021/03/16 23:03:44;;;;;;;12.20;7.73;;;;;;;2.71;81.38;98528.98;258901;1109;23014;-76
2021/03/16 23:09:08;;;;;;;13.50;8.60;;;;;;;2.70;81.81;98530.02;259006;1109;23231;-75
2021/03/16 23:14:30;;;;;;;14.43;8.13;;;;;;;2.64;81.81;98529.14;258898;1108;23021;-74
2021/03/16 23:19:51;;;;;;;11.07;7.13;;;;;;;2.65;81.23;98529.96;259111;1108;23510;-75
2021/03/16 23:25:19;;;;;;;13.50;8.30;;;;;;;2.65;81.31;98524.67;258980;1108;23469;-76
2021/03/16 23:30:42;;;;;;;12.30;7.97;;;;;;;2.64;81.18;98523.06;258988;1108;23022;-75
2021/03/16 23:36:04;;;;;;;11.03;7.30;;;;;;;2.62;81.12;98519.88;258975;1109;23023;-76
2021/03/16 23:41:25;;;;;;;9.77;6.90;;;;;;;2.62;81.05;98522.52;259023;1109;23094;-76
2021/03/16 23:46:47;;;;;;;14.43;8.37;;;;;;;2.54;81.42;98521.86;259036;1108;23472;-75
2021/03/16 23:52:08;;;;;;;12.23;7.27;;;;;;;2.53;81.58;98524.75;258681;1108;24808;-75
2021/03/16 23:57:30;;;;;;;10.50;6.95;;;;;;;2.52;81.07;98518.66;258787;1108;23022;-75
